Time;durP1;ratioP1;P1;durP2;ratioP2;P2;SDS_P1;SDS_P2;PMS_P1;PMS_P2;Temp;Humidity;BMP_temperature;BMP_pressure;BME280_temperature;BME280_humidity;BME280_pressure;Samples;Min_cycle;Max_cycle;Signal;HPM_P1;HPM_P2
2023/08/06 00:00:29;;;;;;;9.52;8.52;;;;;;;;;;5075301;28;20135;-84
2023/08/06 00:02:55;;;;;;;11.52;8.50;;;;;;;;;;5075113;28;20051;-84
2023/08/06 00:05:21;;;;;;;12.75;9.52;;;;;;;;;;5089062;28;20040;-84
2023/08/06 00:07:48;;;;;;;11.90;8.55;;;;;;;;;;5071224;28;20086;-83
2023/08/06 00:10:15;;;;;;;9.82;8.55;;;;;;;;;;5071391;28;20035;-83
2023/08/06 00:12:41;;;;;;;12.65;8.55;;;;;;;;;;5070643;28;20061;-84
2023/08/06 00:15:07;;;;;;;11.73;7.43;;;;;;;;;;5066035;28;20036;-83
2023/08/06 00:17:34;;;;;;;11.93;8.52;;;;;;;;;;5067904;28;20877;-83
2023/08/06 00:20:04;;;;;;;9.50;7.55;;;;;;;;;;5048271;28;21822;-83
2023/08/06 00:22:31;;;;;;;17.30;8.13;;;;;;;;;;5063132;28;20044;-83
2023/08/06 00:24:57;;;;;;;12.15;8.20;;;;;;;;;;5069743;28;20058;-83
2023/08/06 00:27:24;;;;;;;10.88;7.90;;;;;;;;;;5068454;28;20050;-83
2023/08/06 00:29:50;;;;;;;10.80;7.63;;;;;;;;;;5087572;28;20760;-83
2023/08/06 00:32:16;;;;;;;10.88;7.65;;;;;;;;;;5068270;28;22312;-83
2023/08/06 00:34:42;;;;;;;11.75;7.85;;;;;;;;;;5053074;28;20139;-83
2023/08/06 00:37:08;;;;;;;11.63;7.75;;;;;;;;;;5053031;28;20059;-83
2023/08/06 00:39:34;;;;;;;8.55;7.32;;;;;;;;;;5087621;28;20051;-83
2023/08/06 00:42:00;;;;;;;8.05;7.25;;;;;;;;;;5089340;28;20067;-83
2023/08/06 00:44:26;;;;;;;7.70;6.90;;;;;;;;;;5052206;28;20101;-82
2023/08/06 00:46:52;;;;;;;10.05;7.68;;;;;;;;;;5091176;28;20040;-83
2023/08/06 00:49:18;;;;;;;11.40;6.85;;;;;;;;;;5048646;28;20059;-83
2023/08/06 00:51:45;;;;;;;12.10;7.53;;;;;;;;;;5041735;28;20048;-83
2023/08/06 00:54:11;;;;;;;10.98;7.57;;;;;;;;;;5064407;28;20054;-82
2023/08/06 00:56:37;;;;;;;12.60;8.27;;;;;;;;;;5066352;28;20083;-83
2023/08/06 00:59:04;;;;;;;8.95;8.05;;;;;;;;;;5081561;28;20526;-83
2023/08/06 01:01:30;;;;;;;15.45;9.02;;;;;;;;;;5046677;28;20507;-83
2023/08/06 01:03:57;;;;;;;15.38;8.75;;;;;;;;;;5052140;28;20048;-83
2023/08/06 01:06:32;;;;;;;13.85;9.05;;;;;;;;;;5062851;28;20411;-83
2023/08/06 01:09:01;;;;;;;9.55;8.55;;;;;;;;;;5061296;28;20048;-83
2023/08/06 01:11:27;;;;;;;10.50;9.30;;;;;;;;;;5061806;28;21081;-83
2023/08/06 01:14:06;;;;;;;18.80;9.30;;;;;;;;;;5065301;28;20138;-83
2023/08/06 01:16:34;;;;;;;14.23;9.25;;;;;;;;;;5061115;28;20203;-82
2023/08/06 01:19:00;;;;;;;11.27;9.15;;;;;;;;;;5062661;28;20075;-83
2023/08/06 01:21:26;;;;;;;15.10;9.23;;;;;;;;;;5062704;28;21207;-83
2023/08/06 01:23:52;;;;;;;9.60;8.60;;;;;;;;;;5065691;28;21535;-83
2023/08/06 01:26:18;;;;;;;18.65;10.00;;;;;;;;;;5066791;28;20059;-83
2023/08/06 01:28:49;;;;;;;10.70;9.25;;;;;;;;;;5064993;28;20056;-82
2023/08/06 01:31:35;;;;;;;11.23;9.38;;;;;;;;;;5066366;28;20066;-83
2023/08/06 01:34:02;;;;;;;15.98;9.68;;;;;;;;;;5082391;27;20537;-83
2023/08/06 01:36:28;;;;;;;19.67;9.45;;;;;;;;;;5056186;28;20146;-83
2023/08/06 01:38:54;;;;;;;14.52;10.40;;;;;;;;;;5067340;28;20591;-83
2023/08/06 01:41:21;;;;;;;13.13;9.75;;;;;;;;;;5065854;28;20506;-83
2023/08/06 01:43:47;;;;;;;17.88;10.07;;;;;;;;;;5062526;28;20054;-83
2023/08/06 01:46:13;;;;;;;13.23;9.63;;;;;;;;;;5063964;28;20209;-82
2023/08/06 01:48:39;;;;;;;17.38;10.40;;;;;;;;;;5070788;28;20055;-81
2023/08/06 01:51:05;;;;;;;16.17;9.95;;;;;;;;;;5042027;28;20648;-82
2023/08/06 01:53:32;;;;;;;13.43;10.35;;;;;;;;;;5061446;28;21616;-82
2023/08/06 01:55:58;;;;;;;13.02;9.93;;;;;;;;;;5064669;28;20052;-83
2023/08/06 01:58:24;;;;;;;13.75;11.05;;;;;;;;;;5085810;28;20613;-83
2023/08/06 02:00:50;;;;;;;13.52;10.68;;;;;;;;;;5067136;28;20059;-82
2023/08/06 02:03:16;;;;;;;11.40;10.13;;;;;;;;;;5065495;28;20152;-82
2023/08/06 02:05:42;;;;;;;11.05;9.80;;;;;;;;;;5049640;28;20072;-82
2023/08/06 02:08:08;;;;;;;11.52;9.93;;;;;;;;;;5085601;28;20167;-83
2023/08/06 02:10:35;;;;;;;15.90;10.15;;;;;;;;;;5085117;27;20086;-83
2023/08/06 02:13:01;;;;;;;18.33;10.70;;;;;;;;;;5085714;28;20051;-83
2023/08/06 02:15:27;;;;;;;12.75;10.65;;;;;;;;;;5084309;27;21403;-82
2023/08/06 02:17:53;;;;;;;12.48;10.13;;;;;;;;;;5049707;28;20056;-84
2023/08/06 02:20:19;;;;;;;15.70;11.00;;;;;;;;;;5062925;28;20055;-83
2023/08/06 02:22:45;;;;;;;14.93;10.20;;;;;;;;;;5079688;28;20130;-82
2023/08/06 02:25:11;;;;;;;18.45;10.25;;;;;;;;;;5083639;28;20100;-82
2023/08/06 02:27:38;;;;;;;15.77;9.85;;;;;;;;;;5028566;28;20082;-83
2023/08/06 02:30:04;;;;;;;22.13;10.63;;;;;;;;;;5052970;28;20661;-82
2023/08/06 02:32:32;;;;;;;20.15;10.52;;;;;;;;;;5064941;28;20152;-82
2023/08/06 02:34:58;;;;;;;10.63;9.23;;;;;;;;;;5067593;28;20051;-83
2023/08/06 02:37:24;;;;;;;13.25;10.05;;;;;;;;;;5062858;28;20062;-82
2023/08/06 02:39:50;;;;;;;15.07;10.10;;;;;;;;;;5068991;28;20051;-83
2023/08/06 02:42:16;;;;;;;13.52;10.38;;;;;;;;;;5066786;28;20044;-81
2023/08/06 02:44:42;;;;;;;13.15;10.10;;;;;;;;;;5068714;28;20051;-82
2023/08/06 02:47:08;;;;;;;12.52;10.60;;;;;;;;;;5073962;28;20153;-82
2023/08/06 02:49:34;;;;;;;11.55;10.38;;;;;;;;;;5088960;28;20059;-83
2023/08/06 02:52:00;;;;;;;15.95;10.57;;;;;;;;;;5071656;28;20051;-82
2023/08/06 02:54:26;;;;;;;17.58;11.40;;;;;;;;;;5085978;28;20058;-82
2023/08/06 02:56:53;;;;;;;13.57;11.45;;;;;;;;;;5070707;28;20049;-82
2023/08/06 02:59:19;;;;;;;15.60;10.85;;;;;;;;;;5068662;27;21996;-82
2023/08/06 03:01:45;;;;;;;16.27;11.07;;;;;;;;;;5062275;28;20162;-83
2023/08/06 03:04:11;;;;;;;14.40;10.60;;;;;;;;;;5081708;28;20052;-83
2023/08/06 03:06:37;;;;;;;18.67;10.20;;;;;;;;;;5070816;28;22366;-84
2023/08/06 03:09:03;;;;;;;17.55;10.30;;;;;;;;;;5075053;27;20134;-83
2023/08/06 03:11:29;;;;;;;20.95;10.40;;;;;;;;;;5091673;28;20076;-84
2023/08/06 03:13:55;;;;;;;18.73;9.95;;;;;;;;;;5071787;28;20077;-83
2023/08/06 03:16:21;;;;;;;14.45;11.30;;;;;;;;;;5084327;28;20104;-83
2023/08/06 03:18:47;;;;;;;12.70;10.00;;;;;;;;;;5069063;28;20044;-83
2023/08/06 03:21:13;;;;;;;14.00;10.57;;;;;;;;;;5070971;28;20145;-83
2023/08/06 03:23:39;;;;;;;15.32;10.05;;;;;;;;;;5075365;28;20063;-84
2023/08/06 03:26:05;;;;;;;12.00;10.32;;;;;;;;;;5072209;28;20063;-84
2023/08/06 03:28:31;;;;;;;17.40;10.77;;;;;;;;;;5076309;28;20059;-84
2023/08/06 03:31:01;;;;;;;15.02;11.05;;;;;;;;;;5076585;28;20044;-85
2023/08/06 03:33:27;;;;;;;15.88;11.60;;;;;;;;;;5067514;28;20051;-84
2023/08/06 03:35:53;;;;;;;17.98;11.68;;;;;;;;;;5065597;28;20059;-83
2023/08/06 03:38:19;;;;;;;15.05;10.73;;;;;;;;;;5066854;28;20063;-84
2023/08/06 03:40:46;;;;;;;13.55;10.60;;;;;;;;;;5085380;28;20155;-84
2023/08/06 03:43:12;;;;;;;11.32;10.13;;;;;;;;;;5064519;28;20047;-83
2023/08/06 03:45:38;;;;;;;13.93;9.98;;;;;;;;;;5063543;28;20047;-83
2023/08/06 03:48:05;;;;;;;10.75;9.65;;;;;;;;;;5033556;28;20556;-83
2023/08/06 03:50:31;;;;;;;11.82;10.25;;;;;;;;;;5065324;28;20048;-84
2023/08/06 03:52:57;;;;;;;16.15;10.60;;;;;;;;;;5049741;27;20059;-83
2023/08/06 03:55:23;;;;;;;16.85;10.02;;;;;;;;;;5069489;28;20771;-83
2023/08/06 03:57:49;;;;;;;12.35;10.20;;;;;;;;;;5067858;28;20051;-83
2023/08/06 04:00:15;;;;;;;14.43;10.25;;;;;;;;;;5051082;28;20101;-82
2023/08/06 04:02:41;;;;;;;14.43;10.95;;;;;;;;;;5065520;28;20048;-84
2023/08/06 04:05:07;;;;;;;11.38;10.23;;;;;;;;;;5064117;28;20502;-83
2023/08/06 04:07:33;;;;;;;13.77;10.40;;;;;;;;;;5062671;28;20052;-82
2023/08/06 04:10:01;;;;;;;13.90;10.00;;;;;;;;;;5082049;28;20051;-82
2023/08/06 04:12:27;;;;;;;12.40;9.63;;;;;;;;;;5067066;27;20058;-82
2023/08/06 04:14:54;;;;;;;12.57;10.18;;;;;;;;;;5085836;28;20072;-82
2023/08/06 04:17:23;;;;;;;15.90;10.25;;;;;;;;;;5083306;28;20496;-82
2023/08/06 04:19:54;;;;;;;11.38;10.18;;;;;;;;;;5045028;28;20126;-82
2023/08/06 04:22:21;;;;;;;13.65;10.85;;;;;;;;;;5082655;28;20134;-82
2023/08/06 04:24:47;;;;;;;14.48;11.52;;;;;;;;;;5065281;28;20044;-82
2023/08/06 04:27:14;;;;;;;15.02;11.07;;;;;;;;;;5068475;28;20062;-82
2023/08/06 04:29:40;;;;;;;12.80;11.25;;;;;;;;;;5086327;28;20044;-82
2023/08/06 04:32:07;;;;;;;15.27;11.85;;;;;;;;;;5067509;28;20055;-82
2023/08/06 04:34:33;;;;;;;14.13;11.90;;;;;;;;;;5055288;28;20078;-82
2023/08/06 04:37:00;;;;;;;14.05;12.45;;;;;;;;;;5065300;28;20391;-82
2023/08/06 04:39:26;;;;;;;14.35;11.70;;;;;;;;;;5065306;28;20056;-82
2023/08/06 04:41:52;;;;;;;13.95;11.90;;;;;;;;;;5067404;28;20138;-82
2023/08/06 04:44:18;;;;;;;15.23;11.27;;;;;;;;;;5084225;28;20102;-82
2023/08/06 04:46:44;;;;;;;15.40;11.88;;;;;;;;;;5088333;27;20341;-82
2023/08/06 04:49:10;;;;;;;15.15;10.85;;;;;;;;;;5066867;28;20044;-82
2023/08/06 04:51:36;;;;;;;12.50;11.20;;;;;;;;;;5085207;28;20048;-82
2023/08/06 04:54:02;;;;;;;12.13;10.75;;;;;;;;;;5070716;28;20189;-82
2023/08/06 04:56:28;;;;;;;17.30;9.98;;;;;;;;;;5064044;28;20055;-82
2023/08/06 04:58:55;;;;;;;18.23;11.20;;;;;;;;;;5064406;28;20593;-82
2023/08/06 05:01:21;;;;;;;13.57;10.48;;;;;;;;;;5065639;28;20056;-81
2023/08/06 05:03:48;;;;;;;11.50;10.30;;;;;;;;;;5064172;28;21196;-82
2023/08/06 05:06:14;;;;;;;12.02;10.20;;;;;;;;;;5064788;28;20044;-82
2023/08/06 05:08:40;;;;;;;14.38;9.52;;;;;;;;;;5082735;28;20051;-82
2023/08/06 05:11:06;;;;;;;12.77;9.68;;;;;;;;;;5064952;28;21731;-82
2023/08/06 05:13:32;;;;;;;11.35;9.40;;;;;;;;;;5081372;28;20149;-82
2023/08/06 05:15:58;;;;;;;12.77;10.32;;;;;;;;;;5062368;28;20113;-82
2023/08/06 05:18:24;;;;;;;11.05;9.63;;;;;;;;;;5059861;28;20048;-82
2023/08/06 05:20:50;;;;;;;10.80;9.63;;;;;;;;;;5062769;28;20039;-82
2023/08/06 05:23:16;;;;;;;10.48;8.93;;;;;;;;;;5065841;28;20166;-82
2023/08/06 05:25:42;;;;;;;13.15;8.82;;;;;;;;;;5066117;28;20035;-82
2023/08/06 05:28:09;;;;;;;10.10;9.07;;;;;;;;;;5067622;28;20060;-82
2023/08/06 05:30:37;;;;;;;12.05;9.60;;;;;;;;;;5066546;28;20063;-82
2023/08/06 05:33:03;;;;;;;11.95;10.45;;;;;;;;;;5052839;28;20214;-82
2023/08/06 05:35:29;;;;;;;14.13;11.57;;;;;;;;;;5066544;28;20201;-82
2023/08/06 05:37:55;;;;;;;14.75;11.30;;;;;;;;;;5067108;28;20048;-83
2023/08/06 05:40:21;;;;;;;13.95;11.43;;;;;;;;;;5068147;28;20087;-84
2023/08/06 05:42:47;;;;;;;15.25;11.70;;;;;;;;;;5068166;28;20048;-84
2023/08/06 05:45:13;;;;;;;13.57;11.27;;;;;;;;;;5044999;28;22776;-84
2023/08/06 05:47:39;;;;;;;16.77;12.07;;;;;;;;;;5066295;28;20047;-84
2023/08/06 05:50:05;;;;;;;13.95;12.18;;;;;;;;;;5066021;28;20052;-84
2023/08/06 05:52:31;;;;;;;13.38;11.27;;;;;;;;;;5066690;28;20101;-83
2023/08/06 05:54:57;;;;;;;14.27;11.80;;;;;;;;;;5067654;28;20101;-84
2023/08/06 05:57:23;;;;;;;16.35;11.70;;;;;;;;;;5090788;28;20049;-83
2023/08/06 05:59:49;;;;;;;12.68;10.95;;;;;;;;;;5066439;28;20136;-83
2023/08/06 06:02:16;;;;;;;16.25;12.57;;;;;;;;;;5048109;28;20392;-83
2023/08/06 06:04:42;;;;;;;15.10;12.02;;;;;;;;;;5061434;28;20044;-84
2023/08/06 06:07:08;;;;;;;15.65;11.75;;;;;;;;;;5065461;28;20086;-83
2023/08/06 06:09:34;;;;;;;17.00;12.35;;;;;;;;;;5045476;28;20056;-84
2023/08/06 06:12:00;;;;;;;13.90;11.93;;;;;;;;;;5051551;28;20055;-83
2023/08/06 06:14:26;;;;;;;11.93;10.70;;;;;;;;;;5067259;28;20138;-82
2023/08/06 06:16:53;;;;;;;16.48;11.13;;;;;;;;;;5069051;28;20447;-83
2023/08/06 06:19:19;;;;;;;16.17;11.98;;;;;;;;;;5084844;27;20652;-82
2023/08/06 06:21:45;;;;;;;13.07;11.10;;;;;;;;;;5083222;27;20693;-83
2023/08/06 06:24:11;;;;;;;13.82;11.02;;;;;;;;;;5063312;28;20048;-83
2023/08/06 06:26:37;;;;;;;11.55;10.23;;;;;;;;;;5065542;28;20048;-83
2023/08/06 06:29:03;;;;;;;11.73;10.32;;;;;;;;;;5063300;28;20769;-84
2023/08/06 06:31:29;;;;;;;13.50;10.30;;;;;;;;;;5047768;28;20063;-83
2023/08/06 06:33:55;;;;;;;13.68;10.25;;;;;;;;;;5030001;28;20059;-84
2023/08/06 06:36:22;;;;;;;12.00;9.50;;;;;;;;;;5058394;28;20054;-83
2023/08/06 06:38:49;;;;;;;10.32;9.20;;;;;;;;;;5060711;28;20056;-84
2023/08/06 06:41:15;;;;;;;12.02;8.80;;;;;;;;;;5065098;28;20052;-83
2023/08/06 06:43:41;;;;;;;10.93;8.85;;;;;;;;;;5062208;28;20110;-83
2023/08/06 06:46:07;;;;;;;10.43;8.52;;;;;;;;;;5056471;28;20412;-83
2023/08/06 06:48:34;;;;;;;10.95;9.30;;;;;;;;;;5063561;28;20051;-83
2023/08/06 06:51:00;;;;;;;13.95;9.27;;;;;;;;;;5059986;28;20066;-83
2023/08/06 06:53:29;;;;;;;9.73;8.50;;;;;;;;;;5038344;28;20063;-83
2023/08/06 06:56:05;;;;;;;11.75;8.20;;;;;;;;;;5076945;28;20692;-83
2023/08/06 06:58:31;;;;;;;11.55;8.32;;;;;;;;;;5060618;28;20044;-83
2023/08/06 07:00:57;;;;;;;14.70;8.68;;;;;;;;;;5059631;28;20077;-84
2023/08/06 07:03:24;;;;;;;10.40;8.05;;;;;;;;;;5060450;28;20048;-83
2023/08/06 07:05:50;;;;;;;11.35;8.55;;;;;;;;;;5062408;28;20044;-82
2023/08/06 07:08:16;;;;;;;11.05;8.68;;;;;;;;;;5061159;28;22305;-83
2023/08/06 07:10:43;;;;;;;9.50;8.50;;;;;;;;;;5059864;28;20051;-82
2023/08/06 07:13:09;;;;;;;10.32;8.57;;;;;;;;;;5058905;28;20048;-83
2023/08/06 07:15:35;;;;;;;10.70;8.63;;;;;;;;;;5036185;28;20162;-83
2023/08/06 07:18:04;;;;;;;8.68;7.80;;;;;;;;;;5045375;28;20154;-82
2023/08/06 07:20:31;;;;;;;10.27;8.05;;;;;;;;;;5061203;28;20051;-82
2023/08/06 07:22:58;;;;;;;9.70;7.28;;;;;;;;;;5064467;28;20075;-82
2023/08/06 07:25:24;;;;;;;11.10;7.20;;;;;;;;;;5082423;28;20048;-82
2023/08/06 07:27:50;;;;;;;8.43;7.07;;;;;;;;;;5054679;27;20486;-83
2023/08/06 07:30:16;;;;;;;8.52;7.40;;;;;;;;;;5071522;28;20514;-83
2023/08/06 07:32:43;;;;;;;10.25;8.50;;;;;;;;;;5068901;28;20157;-83
2023/08/06 07:35:12;;;;;;;9.18;7.50;;;;;;;;;;5070204;28;21980;-81
2023/08/06 07:37:38;;;;;;;8.90;7.18;;;;;;;;;;5053635;28;20108;-82
2023/08/06 07:40:05;;;;;;;7.65;6.93;;;;;;;;;;5071711;28;20439;-82
2023/08/06 07:42:31;;;;;;;9.38;7.38;;;;;;;;;;5066749;28;20082;-82
2023/08/06 07:44:59;;;;;;;7.22;6.53;;;;;;;;;;5067481;28;20222;-83
2023/08/06 07:47:25;;;;;;;8.73;6.78;;;;;;;;;;5066146;28;20126;-83
2023/08/06 07:49:51;;;;;;;7.93;6.97;;;;;;;;;;5072315;28;20051;-82
2023/08/06 07:52:17;;;;;;;7.53;6.80;;;;;;;;;;5090508;28;20043;-82
2023/08/06 07:54:43;;;;;;;8.65;6.65;;;;;;;;;;5088465;28;20062;-82
2023/08/06 07:57:11;;;;;;;7.63;6.93;;;;;;;;;;5074420;28;20052;-81
2023/08/06 07:59:37;;;;;;;7.30;6.43;;;;;;;;;;5072416;28;20048;-81
2023/08/06 08:02:04;;;;;;;7.03;5.97;;;;;;;;;;5067843;28;20051;-77
2023/08/06 08:04:30;;;;;;;8.13;6.15;;;;;;;;;;5047164;27;20054;-77
2023/08/06 08:06:56;;;;;;;6.15;5.55;;;;;;;;;;5071093;28;20048;-78
2023/08/06 08:09:22;;;;;;;5.35;4.85;;;;;;;;;;5073847;28;20133;-78
2023/08/06 08:11:48;;;;;;;8.05;6.25;;;;;;;;;;5087389;28;20051;-78
2023/08/06 08:14:14;;;;;;;6.47;5.28;;;;;;;;;;5066827;28;20051;-77
2023/08/06 08:16:40;;;;;;;6.00;5.50;;;;;;;;;;5070302;27;22225;-77
2023/08/06 08:19:06;;;;;;;5.63;5.05;;;;;;;;;;5071194;28;20162;-77
2023/08/06 08:21:32;;;;;;;7.38;5.63;;;;;;;;;;5055740;28;20059;-76
2023/08/06 08:24:00;;;;;;;6.25;4.97;;;;;;;;;;5086077;27;20044;-77
2023/08/06 08:26:27;;;;;;;4.55;4.15;;;;;;;;;;5063925;28;20048;-77
2023/08/06 08:28:54;;;;;;;4.88;4.40;;;;;;;;;;5067589;28;20063;-81
2023/08/06 08:31:20;;;;;;;6.60;5.25;;;;;;;;;;5067948;28;20139;-81
2023/08/06 08:33:46;;;;;;;5.97;4.38;;;;;;;;;;5089772;28;20039;-81
2023/08/06 08:36:12;;;;;;;6.75;4.43;;;;;;;;;;5068773;28;20102;-81
2023/08/06 08:38:38;;;;;;;4.95;4.30;;;;;;;;;;5089505;28;20552;-81
2023/08/06 08:41:04;;;;;;;4.65;4.05;;;;;;;;;;5090728;28;20043;-81
2023/08/06 08:43:30;;;;;;;3.60;3.20;;;;;;;;;;5049582;28;20058;-80
2023/08/06 08:46:00;;;;;;;5.22;3.22;;;;;;;;;;5083057;28;20043;-82
2023/08/06 08:48:29;;;;;;;2.70;2.50;;;;;;;;;;5053470;28;21476;-80
2023/08/06 08:50:56;;;;;;;4.78;3.25;;;;;;;;;;5074323;28;20161;-81
2023/08/06 08:53:22;;;;;;;3.60;2.58;;;;;;;;;;5091132;28;20055;-81
2023/08/06 08:55:49;;;;;;;5.43;3.00;;;;;;;;;;5086273;28;20382;-81
2023/08/06 08:58:16;;;;;;;3.78;2.80;;;;;;;;;;5048677;28;20431;-82
2023/08/06 09:00:42;;;;;;;3.17;2.70;;;;;;;;;;5065827;28;20074;-81
2023/08/06 09:03:09;;;;;;;3.67;2.83;;;;;;;;;;5063128;28;20052;-82
2023/08/06 09:05:35;;;;;;;2.75;2.55;;;;;;;;;;5067398;28;20095;-81
2023/08/06 09:08:03;;;;;;;2.83;2.60;;;;;;;;;;5068939;28;20039;-81
2023/08/06 09:10:29;;;;;;;3.83;2.60;;;;;;;;;;5065853;28;20051;-82
2023/08/06 09:12:56;;;;;;;3.30;2.80;;;;;;;;;;5086625;28;20377;-81
2023/08/06 09:15:25;;;;;;;2.30;2.10;;;;;;;;;;5087792;28;20861;-82
2023/08/06 09:17:55;;;;;;;5.30;2.28;;;;;;;;;;5062744;28;20051;-80
2023/08/06 09:20:21;;;;;;;2.22;2.03;;;;;;;;;;5061535;28;20051;-82
2023/08/06 09:22:48;;;;;;;2.50;2.30;;;;;;;;;;5061071;28;20040;-81
2023/08/06 09:25:24;;;;;;;2.72;2.50;;;;;;;;;;5053611;28;20056;-80
2023/08/06 09:27:51;;;;;;;3.88;2.20;;;;;;;;;;5071880;28;20044;-80
2023/08/06 09:30:33;;;;;;;6.03;2.83;;;;;;;;;;5088262;28;20093;-79
2023/08/06 09:32:59;;;;;;;2.95;2.40;;;;;;;;;;5064580;28;20471;-81
2023/08/06 09:35:28;;;;;;;5.50;2.80;;;;;;;;;;5068210;28;20176;-81
2023/08/06 09:37:54;;;;;;;3.70;2.00;;;;;;;;;;5071657;28;20059;-79
2023/08/06 09:40:26;;;;;;;10.75;2.30;;;;;;;;;;5073294;28;20102;-81
2023/08/06 09:42:53;;;;;;;10.65;3.15;;;;;;;;;;5071931;28;20084;-76
2023/08/06 09:45:19;;;;;;;4.95;2.70;;;;;;;;;;5070396;28;20063;-76
2023/08/06 09:47:45;;;;;;;16.95;3.20;;;;;;;;;;5087990;28;20050;-76
2023/08/06 09:50:20;;;;;;;4.20;2.08;;;;;;;;;;5066521;28;20052;-78
2023/08/06 09:52:51;;;;;;;31.15;4.78;;;;;;;;;;5069102;28;20062;-76
2023/08/06 09:55:18;;;;;;;8.55;2.28;;;;;;;;;;5085747;27;21699;-77
2023/08/06 09:57:44;;;;;;;19.45;3.80;;;;;;;;;;5087285;28;20106;-77
2023/08/06 10:00:11;;;;;;;18.95;4.15;;;;;;;;;;5068607;28;20606;-76
2023/08/06 10:02:41;;;;;;;14.18;3.03;;;;;;;;;;5086407;28;20493;-77
2023/08/06 10:05:08;;;;;;;12.88;2.75;;;;;;;;;;5066365;28;20044;-75
2023/08/06 10:07:35;;;;;;;11.70;2.60;;;;;;;;;;5052997;28;20733;-76
2023/08/06 10:10:01;;;;;;;12.18;2.20;;;;;;;;;;5067663;28;21715;-76
2023/08/06 10:12:29;;;;;;;8.60;1.92;;;;;;;;;;5086002;28;20052;-76
2023/08/06 10:14:57;;;;;;;4.72;2.08;;;;;;;;;;5067531;28;20288;-76
2023/08/06 10:17:24;;;;;;;2.63;2.00;;;;;;;;;;5089777;28;20158;-76
2023/08/06 10:19:51;;;;;;;18.52;3.35;;;;;;;;;;5084686;27;20277;-76
2023/08/06 10:22:18;;;;;;;3.47;1.95;;;;;;;;;;5069247;28;20066;-76
2023/08/06 10:24:53;;;;;;;2.45;1.80;;;;;;;;;;5069702;28;20043;-76
2023/08/06 10:27:35;;;;;;;2.55;2.08;;;;;;;;;;5050725;27;20105;-75
2023/08/06 10:30:31;;;;;;;2.38;1.88;;;;;;;;;;5068983;28;20047;-77
2023/08/06 10:33:04;;;;;;;6.28;2.05;;;;;;;;;;5049981;28;20070;-76
2023/08/06 10:35:45;;;;;;;25.52;12.55;;;;;;;;;;5086235;28;20075;-76
2023/08/06 10:38:13;;;;;;;101.40;68.30;;;;;;;;;;5072161;28;20080;-76
2023/08/06 10:40:43;;;;;;;40.80;27.52;;;;;;;;;;5090112;28;20079;-77
2023/08/06 10:43:25;;;;;;;10.82;8.57;;;;;;;;;;5076360;28;20117;-77
2023/08/06 10:45:51;;;;;;;18.35;12.20;;;;;;;;;;5058640;28;20047;-76
2023/08/06 10:48:30;;;;;;;15.10;10.48;;;;;;;;;;5089247;28;20499;-76
2023/08/06 10:50:56;;;;;;;7.45;5.20;;;;;;;;;;5088294;28;20055;-76
2023/08/06 10:53:22;;;;;;;13.02;9.55;;;;;;;;;;5092329;28;21991;-76
2023/08/06 10:55:48;;;;;;;12.45;8.13;;;;;;;;;;5069150;28;20058;-81
2023/08/06 10:58:17;;;;;;;8.20;5.90;;;;;;;;;;5072040;28;20052;-80
2023/08/06 11:00:44;;;;;;;6.70;4.50;;;;;;;;;;5087655;27;20434;-80
2023/08/06 11:03:10;;;;;;;8.63;6.57;;;;;;;;;;5078972;28;20051;-80
2023/08/06 11:05:36;;;;;;;5.72;4.53;;;;;;;;;;5074407;28;20109;-77
2023/08/06 11:08:02;;;;;;;5.90;3.83;;;;;;;;;;5090908;28;20051;-76
2023/08/06 11:10:29;;;;;;;6.22;4.78;;;;;;;;;;5091253;27;20055;-76
2023/08/06 11:12:55;;;;;;;7.47;4.35;;;;;;;;;;5071539;28;20400;-76
2023/08/06 11:15:21;;;;;;;5.20;3.60;;;;;;;;;;5072085;28;20085;-76
2023/08/06 11:17:48;;;;;;;5.25;3.70;;;;;;;;;;5089223;28;20043;-75
2023/08/06 11:20:14;;;;;;;8.15;3.80;;;;;;;;;;5071653;28;20308;-77
2023/08/06 11:22:40;;;;;;;3.47;2.13;;;;;;;;;;5086123;28;20534;-75
2023/08/06 11:25:07;;;;;;;6.70;3.25;;;;;;;;;;5071113;28;20052;-76
2023/08/06 11:27:33;;;;;;;3.35;2.60;;;;;;;;;;5082507;28;20052;-77
2023/08/06 11:29:59;;;;;;;5.38;3.00;;;;;;;;;;5084612;28;20047;-77
2023/08/06 11:32:27;;;;;;;2.88;2.22;;;;;;;;;;5059095;28;20059;-76
2023/08/06 11:34:57;;;;;;;4.00;3.00;;;;;;;;;;5088163;28;20055;-76
2023/08/06 11:37:26;;;;;;;3.42;2.03;;;;;;;;;;5059216;28;20047;-76
2023/08/06 11:39:53;;;;;;;2.85;2.17;;;;;;;;;;5064230;28;20048;-76
2023/08/06 11:42:19;;;;;;;2.65;1.95;;;;;;;;;;5086857;28;20059;-76
2023/08/06 11:44:45;;;;;;;2.85;2.22;;;;;;;;;;5066612;28;20047;-76
2023/08/06 11:47:15;;;;;;;3.80;1.80;;;;;;;;;;5079261;28;21309;-76
2023/08/06 11:49:46;;;;;;;2.15;1.88;;;;;;;;;;5069052;28;20081;-76
2023/08/06 11:52:15;;;;;;;1.85;1.70;;;;;;;;;;5070750;28;20160;-75
2023/08/06 11:54:42;;;;;;;1.73;1.63;;;;;;;;;;5064651;28;20063;-78
2023/08/06 11:57:09;;;;;;;5.40;2.72;;;;;;;;;;5047145;28;20142;-77
2023/08/06 11:59:35;;;;;;;7.80;3.15;;;;;;;;;;5068956;28;20056;-77
2023/08/06 12:02:07;;;;;;;5.85;2.50;;;;;;;;;;5073263;28;20043;-77
2023/08/06 12:04:53;;;;;;;2.97;1.90;;;;;;;;;;5089436;28;20479;-78
2023/08/06 12:07:19;;;;;;;4.15;1.77;;;;;;;;;;5069106;28;20044;-77
2023/08/06 12:09:45;;;;;;;2.17;1.70;;;;;;;;;;5087874;27;20047;-77
2023/08/06 12:12:11;;;;;;;3.10;1.50;;;;;;;;;;5089738;28;20142;-79
2023/08/06 12:14:37;;;;;;;1.90;1.50;;;;;;;;;;5066652;27;21554;-78
2023/08/06 12:17:04;;;;;;;1.95;1.30;;;;;;;;;;5057673;28;20195;-77
2023/08/06 12:19:31;;;;;;;3.85;1.60;;;;;;;;;;5072330;28;20071;-77
2023/08/06 12:21:57;;;;;;;1.50;1.40;;;;;;;;;;5067335;28;20201;-76
2023/08/06 12:24:23;;;;;;;1.95;1.52;;;;;;;;;;5073790;28;20051;-77
2023/08/06 12:26:49;;;;;;;3.13;1.50;;;;;;;;;;5070749;28;20060;-77
2023/08/06 12:29:15;;;;;;;2.22;1.48;;;;;;;;;;5087868;28;20055;-77
2023/08/06 12:31:41;;;;;;;2.42;1.40;;;;;;;;;;5087849;27;20051;-77
2023/08/06 12:34:07;;;;;;;2.22;1.70;;;;;;;;;;5088292;28;20059;-77
2023/08/06 12:36:33;;;;;;;1.88;1.50;;;;;;;;;;5086140;28;20078;-77
2023/08/06 12:38:59;;;;;;;2.08;1.50;;;;;;;;;;5068597;28;20389;-77
2023/08/06 12:41:26;;;;;;;1.80;1.45;;;;;;;;;;5076520;28;20439;-77
2023/08/06 12:43:52;;;;;;;2.67;1.50;;;;;;;;;;5073632;28;20090;-78
2023/08/06 12:46:18;;;;;;;4.45;1.60;;;;;;;;;;5090071;27;20047;-77
2023/08/06 12:48:44;;;;;;;1.58;1.38;;;;;;;;;;5073960;28;20066;-77
2023/08/06 12:51:10;;;;;;;2.28;1.40;;;;;;;;;;5070813;28;20052;-77
2023/08/06 12:53:36;;;;;;;1.98;1.30;;;;;;;;;;5068640;28;20942;-78
2023/08/06 12:56:02;;;;;;;2.83;1.30;;;;;;;;;;5066366;28;20063;-78
2023/08/06 12:58:28;;;;;;;1.77;1.48;;;;;;;;;;5071730;28;20052;-78
2023/08/06 13:00:55;;;;;;;3.45;1.67;;;;;;;;;;5062865;28;20059;-77
2023/08/06 13:03:21;;;;;;;1.50;1.40;;;;;;;;;;5084028;28;20051;-77
2023/08/06 13:05:47;;;;;;;4.63;1.58;;;;;;;;;;5084894;28;20039;-78
2023/08/06 13:08:13;;;;;;;2.22;1.38;;;;;;;;;;5062028;28;20047;-78
2023/08/06 13:10:39;;;;;;;1.48;1.33;;;;;;;;;;5082809;28;20789;-78
2023/08/06 13:13:05;;;;;;;1.33;1.23;;;;;;;;;;5087574;28;20216;-77
2023/08/06 13:15:31;;;;;;;3.10;1.67;;;;;;;;;;5077163;28;20047;-77
2023/08/06 13:17:57;;;;;;;2.85;1.40;;;;;;;;;;5093945;28;20038;-77
2023/08/06 13:20:23;;;;;;;2.20;1.50;;;;;;;;;;5079670;28;20071;-77
2023/08/06 13:22:52;;;;;;;1.58;1.48;;;;;;;;;;5081032;27;20069;-77
2023/08/06 13:25:19;;;;;;;1.33;1.20;;;;;;;;;;5098617;27;20052;-77
2023/08/06 13:27:45;;;;;;;1.90;1.52;;;;;;;;;;5079911;28;20036;-78
2023/08/06 13:30:12;;;;;;;2.53;1.60;;;;;;;;;;5082977;28;20992;-78
2023/08/06 13:32:38;;;;;;;1.70;1.38;;;;;;;;;;5095479;27;20756;-78
2023/08/06 13:35:05;;;;;;;2.05;1.33;;;;;;;;;;5092659;28;20055;-78
2023/08/06 13:37:31;;;;;;;1.48;1.25;;;;;;;;;;5075620;28;20077;-78
2023/08/06 13:39:57;;;;;;;2.42;1.35;;;;;;;;;;5079918;28;20155;-78
2023/08/06 13:42:23;;;;;;;3.30;1.40;;;;;;;;;;5100148;28;20059;-79
2023/08/06 13:44:49;;;;;;;1.52;1.42;;;;;;;;;;5083233;28;20058;-78
2023/08/06 13:47:15;;;;;;;3.83;1.45;;;;;;;;;;5098789;28;20056;-78
2023/08/06 13:49:41;;;;;;;2.05;1.15;;;;;;;;;;5079917;28;20077;-78
2023/08/06 13:52:07;;;;;;;1.42;1.23;;;;;;;;;;5081074;27;20110;-78
2023/08/06 13:54:33;;;;;;;2.15;1.70;;;;;;;;;;5076814;28;20044;-79
2023/08/06 13:56:59;;;;;;;2.65;1.40;;;;;;;;;;5089740;27;20062;-78
2023/08/06 13:59:26;;;;;;;1.45;1.33;;;;;;;;;;5050133;28;20158;-78
2023/08/06 14:01:53;;;;;;;3.90;1.30;;;;;;;;;;5038058;28;21886;-78
2023/08/06 14:04:21;;;;;;;1.50;1.40;;;;;;;;;;5077482;28;20043;-78
2023/08/06 14:06:47;;;;;;;2.45;1.52;;;;;;;;;;5096635;28;20062;-78
2023/08/06 14:09:18;;;;;;;1.35;1.25;;;;;;;;;;5062693;28;20138;-78
2023/08/06 14:11:44;;;;;;;3.08;1.50;;;;;;;;;;5078210;28;20139;-78
2023/08/06 14:14:11;;;;;;;2.80;1.52;;;;;;;;;;5079547;27;20195;-78
2023/08/06 14:16:37;;;;;;;3.70;1.50;;;;;;;;;;5094004;27;20742;-79
2023/08/06 14:19:04;;;;;;;2.13;1.55;;;;;;;;;;5092558;28;20090;-79
2023/08/06 14:21:30;;;;;;;2.78;1.70;;;;;;;;;;5077007;28;20043;-79
2023/08/06 14:23:56;;;;;;;2.97;1.60;;;;;;;;;;5078580;28;20141;-78
2023/08/06 14:26:22;;;;;;;1.75;1.50;;;;;;;;;;5075406;28;20050;-78
2023/08/06 14:28:48;;;;;;;2.20;1.50;;;;;;;;;;5090990;27;20055;-78